sensor_id;sensor_type;location;lat;lon;timestamp;P1;durP1;ratioP1;P2;durP2;ratioP2
17261;SDS011;9873;52.236;21.002;2022-12-07T00:08:11;31.77;;;16.77;;
17261;SDS011;9873;52.236;21.002;2022-12-07T00:18:13;41.70;;;19.07;;
17261;SDS011;9873;52.236;21.002;2022-12-07T00:28:15;39.57;;;18.90;;
17261;SDS011;9873;52.236;21.002;2022-12-07T00:38:17;35.23;;;18.60;;
17261;SDS011;9873;52.236;21.002;2022-12-07T00:48:22;49.97;;;21.30;;
17261;SDS011;9873;52.236;21.002;2022-12-07T00:58:24;43.90;;;20.97;;
17261;SDS011;9873;52.236;21.002;2022-12-07T01:08:29;40.87;;;21.53;;
17261;SDS011;9873;52.236;21.002;2022-12-07T01:18:33;48.13;;;24.00;;
17261;SDS011;9873;52.236;21.002;2022-12-07T01:28:38;43.83;;;23.10;;
17261;SDS011;9873;52.236;21.002;2022-12-07T01:38:43;46.63;;;23.13;;
17261;SDS011;9873;52.236;21.002;2022-12-07T01:48:48;39.23;;;22.73;;
17261;SDS011;9873;52.236;21.002;2022-12-07T01:58:54;37.30;;;18.87;;
17261;SDS011;9873;52.236;21.002;2022-12-07T02:08:59;34.83;;;17.27;;
17261;SDS011;9873;52.236;21.002;2022-12-07T02:50:06;22.70;;;11.57;;
17261;SDS011;9873;52.236;21.002;2022-12-07T03:00:12;19.20;;;10.87;;
17261;SDS011;9873;52.236;21.002;2022-12-07T03:10:32;17.90;;;10.17;;
17261;SDS011;9873;52.236;21.002;2022-12-07T03:20:37;20.10;;;10.77;;
17261;SDS011;9873;52.236;21.002;2022-12-07T03:30:45;23.63;;;11.63;;
17261;SDS011;9873;52.236;21.002;2022-12-07T03:41:00;22.57;;;11.60;;
17261;SDS011;9873;52.236;21.002;2022-12-07T03:51:45;17.40;;;9.53;;
17261;SDS011;9873;52.236;21.002;2022-12-07T04:01:41;15.43;;;9.30;;
17261;SDS011;9873;52.236;21.002;2022-12-07T04:11:45;16.00;;;8.70;;
17261;SDS011;9873;52.236;21.002;2022-12-07T04:21:49;12.20;;;8.23;;
17261;SDS011;9873;52.236;21.002;2022-12-07T04:31:51;12.90;;;7.73;;
17261;SDS011;9873;52.236;21.002;2022-12-07T04:41:56;13.83;;;7.47;;
17261;SDS011;9873;52.236;21.002;2022-12-07T04:52:01;16.13;;;8.80;;
17261;SDS011;9873;52.236;21.002;2022-12-07T05:02:03;16.80;;;8.63;;
17261;SDS011;9873;52.236;21.002;2022-12-07T05:12:11;13.60;;;7.97;;
17261;SDS011;9873;52.236;21.002;2022-12-07T05:22:13;13.43;;;7.73;;
17261;SDS011;9873;52.236;21.002;2022-12-07T05:32:15;12.50;;;7.70;;
17261;SDS011;9873;52.236;21.002;2022-12-07T05:42:18;12.80;;;7.90;;
17261;SDS011;9873;52.236;21.002;2022-12-07T05:52:27;17.33;;;9.27;;
17261;SDS011;9873;52.236;21.002;2022-12-07T06:02:31;15.23;;;9.00;;
17261;SDS011;9873;52.236;21.002;2022-12-07T06:12:34;17.17;;;9.30;;
17261;SDS011;9873;52.236;21.002;2022-12-07T06:22:37;12.70;;;7.97;;
17261;SDS011;9873;52.236;21.002;2022-12-07T06:32:41;17.73;;;11.43;;
17261;SDS011;9873;52.236;21.002;2022-12-07T06:42:43;13.83;;;8.37;;
17261;SDS011;9873;52.236;21.002;2022-12-07T06:52:48;13.73;;;8.07;;
17261;SDS011;9873;52.236;21.002;2022-12-07T07:02:50;13.57;;;6.27;;
17261;SDS011;9873;52.236;21.002;2022-12-07T07:12:52;22.07;;;7.67;;
17261;SDS011;9873;52.236;21.002;2022-12-07T07:22:58;13.70;;;7.37;;
17261;SDS011;9873;52.236;21.002;2022-12-07T07:33:00;13.10;;;6.23;;
17261;SDS011;9873;52.236;21.002;2022-12-07T07:43:03;13.53;;;7.07;;
17261;SDS011;9873;52.236;21.002;2022-12-07T07:53:05;11.40;;;7.10;;
17261;SDS011;9873;52.236;21.002;2022-12-07T08:03:07;15.70;;;8.10;;
17261;SDS011;9873;52.236;21.002;2022-12-07T08:13:09;13.30;;;7.30;;
17261;SDS011;9873;52.236;21.002;2022-12-07T08:23:24;17.43;;;9.00;;
17261;SDS011;9873;52.236;21.002;2022-12-07T08:33:42;19.73;;;9.27;;
17261;SDS011;9873;52.236;21.002;2022-12-07T08:43:46;24.27;;;11.50;;
17261;SDS011;9873;52.236;21.002;2022-12-07T08:53:50;25.70;;;11.23;;
17261;SDS011;9873;52.236;21.002;2022-12-07T09:03:53;29.80;;;12.77;;
17261;SDS011;9873;52.236;21.002;2022-12-07T09:14:00;32.83;;;13.20;;
17261;SDS011;9873;52.236;21.002;2022-12-07T09:24:03;31.77;;;12.77;;
17261;SDS011;9873;52.236;21.002;2022-12-07T09:34:08;31.43;;;13.30;;
17261;SDS011;9873;52.236;21.002;2022-12-07T09:44:11;32.53;;;14.03;;
17261;SDS011;9873;52.236;21.002;2022-12-07T09:54:25;32.10;;;14.03;;
17261;SDS011;9873;52.236;21.002;2022-12-07T10:04:29;32.73;;;13.73;;
17261;SDS011;9873;52.236;21.002;2022-12-07T10:14:34;31.70;;;12.20;;
17261;SDS011;9873;52.236;21.002;2022-12-07T10:25:07;30.70;;;11.50;;
17261;SDS011;9873;52.236;21.002;2022-12-07T10:45:28;30.53;;;12.60;;
17261;SDS011;9873;52.236;21.002;2022-12-07T11:16:51;25.83;;;11.77;;
17261;SDS011;9873;52.236;21.002;2022-12-07T11:37:02;23.70;;;11.33;;
17261;SDS011;9873;52.236;21.002;2022-12-07T11:47:10;23.73;;;12.50;;
17261;SDS011;9873;52.236;21.002;2022-12-07T11:57:37;20.90;;;11.87;;
17261;SDS011;9873;52.236;21.002;2022-12-07T12:07:48;21.63;;;10.27;;
17261;SDS011;9873;52.236;21.002;2022-12-07T13:09:26;21.13;;;11.33;;
17261;SDS011;9873;52.236;21.002;2022-12-07T13:29:43;17.67;;;9.70;;
17261;SDS011;9873;52.236;21.002;2022-12-07T13:39:53;21.30;;;9.37;;
17261;SDS011;9873;52.236;21.002;2022-12-07T13:50:00;19.60;;;11.70;;
17261;SDS011;9873;52.236;21.002;2022-12-07T14:00:05;18.90;;;11.23;;
17261;SDS011;9873;52.236;21.002;2022-12-07T14:10:23;18.27;;;9.80;;
17261;SDS011;9873;52.236;21.002;2022-12-07T14:30:40;19.53;;;10.57;;
17261;SDS011;9873;52.236;21.002;2022-12-07T14:40:43;14.10;;;8.93;;
17261;SDS011;9873;52.236;21.002;2022-12-07T14:50:49;21.27;;;11.83;;
17261;SDS011;9873;52.236;21.002;2022-12-07T15:01:17;21.97;;;12.03;;
17261;SDS011;9873;52.236;21.002;2022-12-07T15:11:25;22.27;;;12.40;;
17261;SDS011;9873;52.236;21.002;2022-12-07T15:21:27;20.97;;;11.27;;
17261;SDS011;9873;52.236;21.002;2022-12-07T15:31:29;19.40;;;10.70;;
17261;SDS011;9873;52.236;21.002;2022-12-07T15:41:54;21.73;;;12.47;;
17261;SDS011;9873;52.236;21.002;2022-12-07T15:51:58;20.37;;;11.67;;
17261;SDS011;9873;52.236;21.002;2022-12-07T16:02:00;21.67;;;11.23;;
17261;SDS011;9873;52.236;21.002;2022-12-07T16:12:05;21.17;;;12.77;;
17261;SDS011;9873;52.236;21.002;2022-12-07T16:22:07;24.17;;;11.70;;
17261;SDS011;9873;52.236;21.002;2022-12-07T16:32:14;26.63;;;13.93;;
17261;SDS011;9873;52.236;21.002;2022-12-07T16:42:18;25.37;;;13.47;;
17261;SDS011;9873;52.236;21.002;2022-12-07T16:52:23;24.67;;;13.03;;
17261;SDS011;9873;52.236;21.002;2022-12-07T17:02:28;24.37;;;13.10;;
17261;SDS011;9873;52.236;21.002;2022-12-07T17:12:32;24.53;;;14.87;;
17261;SDS011;9873;52.236;21.002;2022-12-07T17:22:39;23.57;;;12.17;;
17261;SDS011;9873;52.236;21.002;2022-12-07T17:32:41;25.90;;;13.60;;
17261;SDS011;9873;52.236;21.002;2022-12-07T17:42:43;12.63;;;7.40;;
17261;SDS011;9873;52.236;21.002;2022-12-07T17:52:48;21.60;;;10.83;;
17261;SDS011;9873;52.236;21.002;2022-12-07T18:03:09;22.33;;;12.70;;
17261;SDS011;9873;52.236;21.002;2022-12-07T18:13:17;21.13;;;16.08;;
17261;SDS011;9873;52.236;21.002;2022-12-07T18:23:37;10.77;;;5.97;;
17261;SDS011;9873;52.236;21.002;2022-12-07T18:33:40;16.13;;;9.57;;
17261;SDS011;9873;52.236;21.002;2022-12-07T18:43:45;12.17;;;6.63;;
17261;SDS011;9873;52.236;21.002;2022-12-07T18:53:50;11.00;;;6.60;;
17261;SDS011;9873;52.236;21.002;2022-12-07T19:03:54;12.13;;;7.80;;
17261;SDS011;9873;52.236;21.002;2022-12-07T19:13:57;17.40;;;10.40;;
17261;SDS011;9873;52.236;21.002;2022-12-07T19:24:08;14.30;;;7.37;;
17261;SDS011;9873;52.236;21.002;2022-12-07T19:34:23;11.27;;;6.23;;
17261;SDS011;9873;52.236;21.002;2022-12-07T19:44:30;15.17;;;8.50;;
17261;SDS011;9873;52.236;21.002;2022-12-07T19:54:35;9.20;;;4.87;;
17261;SDS011;9873;52.236;21.002;2022-12-07T20:04:38;14.20;;;9.37;;
17261;SDS011;9873;52.236;21.002;2022-12-07T20:14:42;13.67;;;7.57;;
17261;SDS011;9873;52.236;21.002;2022-12-07T20:24:47;18.43;;;9.57;;
17261;SDS011;9873;52.236;21.002;2022-12-07T20:34:53;15.27;;;7.43;;
17261;SDS011;9873;52.236;21.002;2022-12-07T20:44:55;13.50;;;9.20;;
17261;SDS011;9873;52.236;21.002;2022-12-07T20:55:05;11.73;;;6.50;;
17261;SDS011;9873;52.236;21.002;2022-12-07T21:05:10;9.83;;;5.53;;
17261;SDS011;9873;52.236;21.002;2022-12-07T21:15:13;10.87;;;6.10;;
17261;SDS011;9873;52.236;21.002;2022-12-07T21:25:17;8.23;;;6.00;;
17261;SDS011;9873;52.236;21.002;2022-12-07T21:35:20;9.23;;;5.53;;
17261;SDS011;9873;52.236;21.002;2022-12-07T21:45:22;12.03;;;7.37;;
17261;SDS011;9873;52.236;21.002;2022-12-07T21:55:27;12.53;;;6.57;;
17261;SDS011;9873;52.236;21.002;2022-12-07T22:05:29;13.17;;;7.43;;
17261;SDS011;9873;52.236;21.002;2022-12-07T22:15:31;10.90;;;7.00;;
17261;SDS011;9873;52.236;21.002;2022-12-07T22:25:33;12.47;;;6.27;;
17261;SDS011;9873;52.236;21.002;2022-12-07T22:35:40;11.17;;;6.50;;
17261;SDS011;9873;52.236;21.002;2022-12-07T22:45:43;11.13;;;6.03;;
17261;SDS011;9873;52.236;21.002;2022-12-07T22:55:48;10.80;;;6.47;;
17261;SDS011;9873;52.236;21.002;2022-12-07T23:05:50;9.73;;;6.40;;
17261;SDS011;9873;52.236;21.002;2022-12-07T23:15:53;12.10;;;5.87;;
17261;SDS011;9873;52.236;21.002;2022-12-07T23:26:00;10.73;;;5.70;;
17261;SDS011;9873;52.236;21.002;2022-12-07T23:46:25;6.73;;;3.77;;
17261;SDS011;9873;52.236;21.002;2022-12-07T23:56:32;10.53;;;6.63;;
